Time;durP1;ratioP1;P1;durP2;ratioP2;P2;SDS_P1;SDS_P2;PMS_P1;PMS_P2;Temp;Humidity;BMP_temperature;BMP_pressure;BME280_temperature;BME280_humidity;BME280_pressure;Samples;Min_cycle;Max_cycle;Signal;HPM_P1;HPM_P2
2022/01/01 00:00:44;;;;;;;26.83;19.75;;;9.70;58.70;;;;;;4993788;28;20683;-78
2022/01/01 00:03:12;;;;;;;29.42;19.60;;;9.70;58.80;;;;;;4991863;28;20216;-77
2022/01/01 00:05:39;;;;;;;25.90;18.70;;;9.60;58.90;;;;;;5009282;28;20227;-78
2022/01/01 00:08:08;;;;;;;32.03;20.23;;;9.50;59.40;;;;;;5009922;28;20227;-78
2022/01/01 00:10:35;;;;;;;28.98;20.05;;;9.50;59.60;;;;;;5009893;28;20196;-76
2022/01/01 00:13:04;;;;;;;30.63;20.67;;;9.40;60.10;;;;;;5011349;28;20529;-77
2022/01/01 00:15:32;;;;;;;34.05;24.27;;;9.40;60.40;;;;;;4998990;28;20189;-78
2022/01/01 00:17:59;;;;;;;29.65;21.52;;;9.40;60.30;;;;;;4995347;28;20268;-78
2022/01/01 00:20:27;;;;;;;26.73;20.17;;;9.30;60.60;;;;;;5011662;28;20234;-78
2022/01/01 00:22:54;;;;;;;29.30;20.70;;;9.30;60.70;;;;;;5013157;28;20196;-77
2022/01/01 00:25:21;;;;;;;35.53;24.10;;;9.30;61.00;;;;;;5013229;28;20590;-78
2022/01/01 00:27:49;;;;;;;36.63;23.33;;;9.30;61.10;;;;;;5013708;28;20274;-78
2022/01/01 00:30:16;;;;;;;32.47;20.20;;;9.20;61.30;;;;;;5013080;28;20195;-77
2022/01/01 00:32:44;;;;;;;24.75;18.98;;;9.20;61.50;;;;;;5011946;28;20283;-77
2022/01/01 00:35:11;;;;;;;28.10;20.73;;;9.20;61.50;;;;;;5002070;28;20300;-78
2022/01/01 00:37:39;;;;;;;23.48;19.48;;;9.20;61.70;;;;;;4995149;28;20614;-78
2022/01/01 00:40:10;;;;;;;27.38;19.92;;;9.20;61.90;;;;;;4998611;28;20212;-77
2022/01/01 00:42:37;;;;;;;28.27;19.65;;;9.10;61.70;;;;;;5009532;28;20199;-78
2022/01/01 00:45:05;;;;;;;23.38;16.33;;;9.10;61.50;;;;;;5005569;28;20336;-78
2022/01/01 00:47:37;;;;;;;19.60;14.32;;;9.00;60.80;;;;;;4994847;28;20199;-78
2022/01/01 00:50:09;;;;;;;21.58;15.70;;;8.90;60.20;;;;;;4995803;28;20224;-77
2022/01/01 00:52:37;;;;;;;20.63;13.70;;;8.80;60.90;;;;;;4994988;28;20220;-77
2022/01/01 00:55:09;;;;;;;20.95;14.38;;;8.80;60.60;;;;;;4996798;28;20574;-77
2022/01/01 00:57:36;;;;;;;20.77;13.85;;;8.70;60.60;;;;;;5009592;28;20192;-77
2022/01/01 01:00:06;;;;;;;20.25;14.32;;;8.60;61.00;;;;;;5012630;28;20200;-77
2022/01/01 01:02:33;;;;;;;16.35;13.15;;;8.60;61.80;;;;;;5012647;28;20192;-77
2022/01/01 01:05:00;;;;;;;15.13;11.80;;;8.60;62.50;;;;;;5012256;28;20306;-78
2022/01/01 01:07:29;;;;;;;20.23;12.63;;;8.60;62.80;;;;;;5012687;28;20200;-78
2022/01/01 01:09:56;;;;;;;21.95;13.80;;;8.60;62.30;;;;;;5004236;28;20739;-78
2022/01/01 01:12:26;;;;;;;14.73;10.70;;;8.60;62.30;;;;;;4998248;28;20188;-77
2022/01/01 01:14:55;;;;;;;14.65;10.27;;;8.60;62.60;;;;;;5008931;28;20707;-78
2022/01/01 01:17:22;;;;;;;12.95;9.00;;;8.70;63.20;;;;;;5011735;28;20220;-78
2022/01/01 01:19:51;;;;;;;21.58;14.68;;;8.70;63.50;;;;;;5004085;28;20189;-77
2022/01/01 01:22:19;;;;;;;15.52;11.43;;;8.70;63.20;;;;;;5008325;28;20666;-76
2022/01/01 01:24:47;;;;;;;22.98;16.23;;;8.70;63.10;;;;;;5011297;28;20224;-77
2022/01/01 01:27:14;;;;;;;15.48;11.20;;;8.70;63.30;;;;;;5007500;28;20184;-78
2022/01/01 01:29:45;;;;;;;16.05;8.85;;;8.70;63.30;;;;;;5011467;28;20199;-77
2022/01/01 01:32:12;;;;;;;14.80;11.45;;;8.70;63.70;;;;;;5011678;28;20188;-78
2022/01/01 01:34:39;;;;;;;12.57;7.70;;;8.70;63.60;;;;;;5011952;28;20268;-77
2022/01/01 01:37:08;;;;;;;12.27;8.05;;;8.70;63.90;;;;;;5012215;28;20202;-77
2022/01/01 01:39:35;;;;;;;9.65;6.75;;;8.70;64.00;;;;;;5011740;28;20279;-77
2022/01/01 01:42:05;;;;;;;12.82;9.32;;;8.60;63.50;;;;;;5012234;28;20200;-77
2022/01/01 01:44:43;;;;;;;15.20;10.98;;;8.60;63.30;;;;;;5012061;28;20561;-77
2022/01/01 01:47:26;;;;;;;13.95;7.93;;;8.50;63.40;;;;;;4995688;28;20188;-78
2022/01/01 01:49:54;;;;;;;15.35;8.15;;;8.30;64.20;;;;;;5011565;28;20201;-76
2022/01/01 01:52:22;;;;;;;11.70;7.28;;;8.20;64.60;;;;;;5011474;28;20195;-78
2022/01/01 01:54:50;;;;;;;10.70;7.72;;;8.20;65.20;;;;;;5012001;28;20200;-77
2022/01/01 01:57:20;;;;;;;13.02;6.03;;;8.20;65.90;;;;;;5011094;28;20195;-76
2022/01/01 01:59:48;;;;;;;12.40;5.60;;;8.20;66.00;;;;;;5007964;28;20188;-77
2022/01/01 02:02:15;;;;;;;6.75;5.75;;;8.20;66.10;;;;;;5011295;28;20189;-76
2022/01/01 02:04:42;;;;;;;12.93;8.00;;;8.20;66.40;;;;;;5011694;28;20311;-78
2022/01/01 02:07:13;;;;;;;9.10;6.05;;;8.20;65.80;;;;;;5011362;28;20280;-78
2022/01/01 02:09:41;;;;;;;9.88;5.93;;;8.20;66.90;;;;;;5007962;28;20231;-77
2022/01/01 02:12:10;;;;;;;9.80;5.25;;;8.10;65.80;;;;;;5010881;28;20269;-77
2022/01/01 02:15:05;;;;;;;8.88;6.60;;;8.20;65.50;;;;;;5011542;28;20351;-78
2022/01/01 02:17:33;;;;;;;12.32;9.65;;;8.20;65.70;;;;;;5001435;28;20312;-78
2022/01/01 02:20:23;;;;;;;8.68;6.40;;;8.10;65.70;;;;;;5003730;28;20699;-78
2022/01/01 02:22:51;;;;;;;13.00;6.60;;;8.10;65.60;;;;;;5013353;28;20192;-78
2022/01/01 02:25:20;;;;;;;8.18;5.38;;;8.10;66.10;;;;;;5012881;28;20215;-77
2022/01/01 02:27:48;;;;;;;5.60;4.72;;;8.10;65.80;;;;;;5013337;28;20258;-77
2022/01/01 02:30:17;;;;;;;9.60;5.97;;;8.00;66.20;;;;;;5012387;28;20199;-77
2022/01/01 02:32:44;;;;;;;8.00;6.03;;;7.90;66.40;;;;;;5013126;28;20200;-78
2022/01/01 02:35:17;;;;;;;8.32;5.50;;;7.90;66.70;;;;;;5011740;28;20184;-77
2022/01/01 02:37:45;;;;;;;8.35;7.05;;;7.90;66.30;;;;;;5013249;28;20192;-78
2022/01/01 02:40:13;;;;;;;13.85;8.63;;;7.70;65.80;;;;;;5012941;28;20188;-78
2022/01/01 02:42:43;;;;;;;13.55;8.75;;;7.70;66.20;;;;;;5012708;28;20214;-77
2022/01/01 02:45:11;;;;;;;11.43;7.13;;;7.60;66.30;;;;;;5012870;28;20220;-78
2022/01/01 02:47:40;;;;;;;12.05;7.03;;;7.50;66.20;;;;;;5012795;28;20215;-74
2022/01/01 02:50:09;;;;;;;12.45;8.13;;;7.40;65.90;;;;;;5012615;28;20188;-78
2022/01/01 02:52:38;;;;;;;11.18;7.35;;;7.40;65.90;;;;;;5012918;28;20232;-77
2022/01/01 02:55:09;;;;;;;12.23;7.75;;;7.40;65.70;;;;;;5012442;28;20207;-77
2022/01/01 02:57:36;;;;;;;13.80;7.40;;;7.30;66.00;;;;;;5012713;28;20196;-78
2022/01/01 03:00:06;;;;;;;11.43;7.55;;;7.20;66.20;;;;;;5012335;28;20278;-78
2022/01/01 03:02:35;;;;;;;11.18;7.80;;;7.20;66.40;;;;;;5012603;28;20196;-78
2022/01/01 03:05:02;;;;;;;11.70;7.07;;;7.20;66.20;;;;;;5012240;28;20243;-77
2022/01/01 03:07:30;;;;;;;12.43;8.18;;;7.10;65.30;;;;;;5012756;28;20531;-78
2022/01/01 03:09:58;;;;;;;12.23;8.20;;;7.10;66.40;;;;;;5012524;28;20263;-77
2022/01/01 03:12:25;;;;;;;12.30;7.90;;;7.10;66.00;;;;;;5011967;28;20193;-77
2022/01/01 03:14:53;;;;;;;12.57;6.50;;;7.10;65.60;;;;;;5012737;28;20196;-78
2022/01/01 03:17:20;;;;;;;10.15;7.75;;;7.00;65.20;;;;;;5011804;28;20220;-78
2022/01/01 03:19:47;;;;;;;8.75;6.28;;;6.90;65.40;;;;;;5012517;28;20192;-78
2022/01/01 03:22:14;;;;;;;9.88;6.90;;;6.90;65.90;;;;;;5012179;28;20603;-78
2022/01/01 03:24:42;;;;;;;10.73;6.60;;;6.90;66.00;;;;;;5032193;28;20573;-78
2022/01/01 03:27:10;;;;;;;10.00;5.93;;;6.80;66.20;;;;;;5023411;28;20609;-78
2022/01/01 03:29:38;;;;;;;18.77;10.48;;;6.80;66.60;;;;;;5012377;28;20207;-78
2022/01/01 03:32:06;;;;;;;11.15;7.28;;;6.80;66.40;;;;;;5011936;28;20206;-77
2022/01/01 03:34:34;;;;;;;7.55;5.82;;;6.70;66.50;;;;;;5012352;28;20193;-77
2022/01/01 03:37:02;;;;;;;9.10;6.03;;;6.70;66.70;;;;;;5011877;28;20216;-76
2022/01/01 03:39:29;;;;;;;10.25;6.78;;;6.70;67.10;;;;;;5011963;28;20599;-77
2022/01/01 03:41:56;;;;;;;12.30;6.50;;;6.60;67.30;;;;;;5011810;28;20211;-77
2022/01/01 03:44:27;;;;;;;12.30;6.65;;;6.70;67.20;;;;;;5012273;28;20196;-78
2022/01/01 03:47:01;;;;;;;10.65;7.15;;;6.60;66.80;;;;;;5013555;28;20180;-78
2022/01/01 03:49:29;;;;;;;11.70;6.65;;;6.60;67.00;;;;;;5016256;28;20716;-77
2022/01/01 03:51:58;;;;;;;8.35;5.97;;;6.70;67.20;;;;;;5015728;28;20200;-78
2022/01/01 03:54:25;;;;;;;8.07;5.78;;;6.60;67.20;;;;;;5016151;28;20192;-77
2022/01/01 03:56:52;;;;;;;10.10;6.90;;;6.60;67.20;;;;;;5015047;28;20243;-77
2022/01/01 03:59:20;;;;;;;10.70;6.97;;;6.70;67.10;;;;;;5033588;28;20191;-78
2022/01/01 04:01:48;;;;;;;10.88;6.55;;;6.60;67.30;;;;;;5029987;28;20243;-77
2022/01/01 04:04:15;;;;;;;9.20;6.53;;;6.70;67.60;;;;;;5016161;28;20660;-77
2022/01/01 04:06:43;;;;;;;8.55;6.65;;;6.70;67.50;;;;;;5015830;28;20184;-78
2022/01/01 04:09:10;;;;;;;8.73;7.30;;;6.70;67.60;;;;;;5016080;28;20200;-77
2022/01/01 04:11:37;;;;;;;8.25;5.80;;;6.70;67.70;;;;;;5015411;28;20187;-77
2022/01/01 04:14:04;;;;;;;9.60;5.63;;;6.70;67.30;;;;;;5016020;28;20192;-77
2022/01/01 04:16:32;;;;;;;8.93;6.28;;;6.80;67.10;;;;;;5015340;28;20232;-78
2022/01/01 04:19:02;;;;;;;10.27;6.07;;;6.70;66.60;;;;;;5009630;28;20699;-77
2022/01/01 04:21:29;;;;;;;9.70;6.65;;;6.60;66.70;;;;;;5007172;28;20192;-77
2022/01/01 04:23:57;;;;;;;9.23;5.93;;;6.60;66.80;;;;;;5015963;28;20227;-77
2022/01/01 04:26:25;;;;;;;10.63;7.28;;;6.60;66.90;;;;;;5015370;28;20263;-77
2022/01/01 04:28:52;;;;;;;10.27;7.50;;;6.50;67.10;;;;;;5015946;28;20196;-78
2022/01/01 04:31:19;;;;;;;12.90;8.75;;;6.40;67.50;;;;;;5015431;28;20558;-78
2022/01/01 04:33:47;;;;;;;9.90;6.50;;;6.40;67.60;;;;;;5015002;28;20201;-78
2022/01/01 04:36:15;;;;;;;8.40;6.20;;;6.40;68.00;;;;;;5015032;28;20768;-78
2022/01/01 04:38:44;;;;;;;11.35;8.07;;;6.40;67.30;;;;;;5015233;28;20254;-77
2022/01/01 04:41:13;;;;;;;12.90;8.30;;;6.40;67.50;;;;;;5014670;28;20193;-77
2022/01/01 04:43:41;;;;;;;9.73;7.63;;;6.40;67.60;;;;;;5014923;28;20195;-78
2022/01/01 04:46:10;;;;;;;12.35;7.18;;;6.20;67.40;;;;;;5015417;28;20200;-77
2022/01/01 04:48:38;;;;;;;11.02;7.10;;;6.20;68.00;;;;;;5014988;28;20192;-78
2022/01/01 04:51:06;;;;;;;11.65;6.40;;;6.10;67.70;;;;;;5015346;28;20342;-77
2022/01/01 04:53:35;;;;;;;9.70;6.45;;;6.10;67.80;;;;;;5014882;28;20232;-77
2022/01/01 04:56:06;;;;;;;8.38;6.32;;;6.00;67.70;;;;;;5015125;28;20224;-76
2022/01/01 04:58:34;;;;;;;10.27;7.10;;;6.00;67.60;;;;;;5013839;28;20196;-77
2022/01/01 05:01:01;;;;;;;10.50;6.05;;;6.00;67.70;;;;;;5015346;28;20275;-77
2022/01/01 05:03:29;;;;;;;9.18;6.50;;;5.90;68.30;;;;;;5014784;28;20279;-77
2022/01/01 05:05:57;;;;;;;7.00;5.93;;;5.80;68.60;;;;;;5014625;28;20188;-77
2022/01/01 05:08:25;;;;;;;10.75;6.82;;;5.80;69.00;;;;;;5014602;28;20185;-76
2022/01/01 05:10:53;;;;;;;9.05;6.30;;;5.70;69.30;;;;;;5014987;28;20283;-77
2022/01/01 05:13:20;;;;;;;8.82;5.93;;;5.60;71.00;;;;;;5014252;28;20271;-77
2022/01/01 05:15:49;;;;;;;8.18;6.43;;;5.60;69.90;;;;;;5014689;28;20262;-77
2022/01/01 05:18:17;;;;;;;7.57;5.95;;;5.50;70.20;;;;;;5014626;28;20556;-77
2022/01/01 05:20:44;;;;;;;10.65;6.47;;;5.50;70.10;;;;;;5014479;28;20650;-77
2022/01/01 05:23:11;;;;;;;8.38;5.93;;;5.50;70.10;;;;;;5014595;28;20196;-77
2022/01/01 05:25:38;;;;;;;8.63;5.88;;;5.40;70.30;;;;;;5014240;28;20216;-78
2022/01/01 05:28:07;;;;;;;10.23;5.35;;;5.40;70.70;;;;;;5014662;28;20295;-77
2022/01/01 05:30:35;;;;;;;7.40;5.95;;;5.40;71.10;;;;;;5014218;28;20196;-77
2022/01/01 05:33:02;;;;;;;10.80;6.30;;;5.40;71.00;;;;;;5014308;28;20215;-77
2022/01/01 05:35:31;;;;;;;9.02;6.20;;;5.40;70.60;;;;;;5013732;28;20188;-77
2022/01/01 05:37:59;;;;;;;10.68;6.20;;;5.50;70.30;;;;;;5014481;28;20196;-77
2022/01/01 05:40:26;;;;;;;8.25;6.18;;;5.50;70.40;;;;;;5014222;28;20193;-76
2022/01/01 05:42:53;;;;;;;8.32;4.80;;;5.50;70.70;;;;;;5014050;28;20195;-78
2022/01/01 05:45:21;;;;;;;7.00;4.57;;;5.60;71.00;;;;;;5014655;28;20196;-78
2022/01/01 05:47:48;;;;;;;6.07;3.92;;;5.60;71.00;;;;;;5013640;28;20188;-78
2022/01/01 05:50:17;;;;;;;9.45;5.10;;;5.70;70.70;;;;;;5014323;28;20269;-78
2022/01/01 05:52:44;;;;;;;8.98;4.53;;;5.70;70.50;;;;;;5013783;28;20220;-78
2022/01/01 05:55:12;;;;;;;8.07;5.53;;;5.70;69.70;;;;;;5013937;28;20279;-77
2022/01/01 05:57:39;;;;;;;9.30;5.68;;;5.80;69.60;;;;;;5013354;28;20216;-77
2022/01/01 06:00:08;;;;;;;7.22;4.50;;;5.80;69.80;;;;;;5013896;28;20206;-78
2022/01/01 06:02:41;;;;;;;8.50;4.60;;;5.70;70.00;;;;;;5013360;28;20647;-78
2022/01/01 06:05:08;;;;;;;8.00;5.05;;;5.80;70.30;;;;;;5013906;28;20247;-77
2022/01/01 06:07:36;;;;;;;8.18;5.43;;;5.80;70.50;;;;;;5013393;28;20477;-77
2022/01/01 06:10:04;;;;;;;6.35;4.50;;;5.70;70.30;;;;;;5013930;28;20203;-77
2022/01/01 06:12:31;;;;;;;6.07;4.20;;;5.70;70.30;;;;;;5013493;28;20203;-77
2022/01/01 06:14:58;;;;;;;7.88;4.78;;;5.70;70.10;;;;;;5013941;28;20188;-77
2022/01/01 06:17:26;;;;;;;6.45;4.30;;;5.70;70.10;;;;;;5012964;28;20264;-77
2022/01/01 06:19:55;;;;;;;7.82;4.93;;;5.70;69.90;;;;;;5013732;28;20199;-77
2022/01/01 06:22:24;;;;;;;8.13;5.45;;;5.70;69.40;;;;;;5013162;28;20238;-78
2022/01/01 06:24:51;;;;;;;8.55;4.57;;;5.70;69.80;;;;;;5013602;28;20694;-77
2022/01/01 06:27:18;;;;;;;6.80;4.13;;;5.60;69.70;;;;;;5012924;28;20205;-78
2022/01/01 06:29:45;;;;;;;9.38;4.05;;;5.50;69.90;;;;;;5013177;28;20549;-78
2022/01/01 06:32:13;;;;;;;7.25;5.32;;;5.50;70.00;;;;;;5013346;28;20200;-77
2022/01/01 06:34:41;;;;;;;8.35;5.43;;;5.50;70.00;;;;;;5012964;28;20638;-77
2022/01/01 06:37:10;;;;;;;7.90;5.20;;;5.50;69.80;;;;;;5013271;28;20216;-77
2022/01/01 06:39:37;;;;;;;8.77;4.95;;;5.50;69.90;;;;;;5012490;28;20258;-77
2022/01/01 06:42:05;;;;;;;8.65;4.82;;;5.50;70.30;;;;;;5013330;28;20573;-77
2022/01/01 06:44:32;;;;;;;8.85;5.15;;;5.50;70.50;;;;;;5012814;28;20585;-77
2022/01/01 06:47:00;;;;;;;9.60;5.10;;;5.50;70.40;;;;;;5012815;28;20279;-76
2022/01/01 06:49:27;;;;;;;8.65;4.90;;;5.50;69.60;;;;;;5012509;28;20196;-76
2022/01/01 06:51:54;;;;;;;9.20;4.80;;;5.40;70.20;;;;;;4993624;28;20192;-76
2022/01/01 06:54:23;;;;;;;8.18;6.65;;;5.40;70.60;;;;;;4995693;28;20291;-78
2022/01/01 06:56:50;;;;;;;12.18;7.00;;;5.40;70.50;;;;;;5013179;28;20226;-78
2022/01/01 06:59:17;;;;;;;7.80;6.05;;;5.40;70.30;;;;;;5012460;28;20200;-77
2022/01/01 07:01:46;;;;;;;14.13;7.60;;;5.30;70.30;;;;;;5012890;28;20265;-78
2022/01/01 07:04:13;;;;;;;11.20;7.03;;;5.30;70.20;;;;;;5012722;28;20192;-77
2022/01/01 07:06:41;;;;;;;10.88;6.97;;;5.10;70.40;;;;;;5013098;28;20287;-77
2022/01/01 07:09:09;;;;;;;10.65;7.82;;;5.00;71.20;;;;;;5012583;28;20199;-77
2022/01/01 07:11:38;;;;;;;8.82;5.97;;;4.90;71.30;;;;;;5012956;28;20200;-77
2022/01/01 07:14:05;;;;;;;11.57;7.85;;;4.90;71.70;;;;;;5012414;28;20188;-78
2022/01/01 07:16:35;;;;;;;10.40;6.95;;;4.90;72.40;;;;;;5012570;28;20650;-78
2022/01/01 07:19:02;;;;;;;12.57;7.03;;;4.90;72.50;;;;;;5012445;28;20246;-77
2022/01/01 07:21:32;;;;;;;11.63;8.23;;;5.00;72.40;;;;;;5012574;28;20286;-77
2022/01/01 07:24:00;;;;;;;12.07;7.95;;;5.10;72.20;;;;;;5012255;28;20192;-78
2022/01/01 07:26:27;;;;;;;15.80;8.38;;;5.10;72.00;;;;;;5012818;28;20199;-77
2022/01/01 07:28:58;;;;;;;11.25;7.45;;;5.20;71.70;;;;;;5011829;28;20227;-77
2022/01/01 07:31:26;;;;;;;13.02;7.55;;;5.20;71.90;;;;;;5012818;28;20602;-74
2022/01/01 07:33:54;;;;;;;11.88;8.85;;;5.30;71.90;;;;;;5012257;28;20279;-78
2022/01/01 07:36:21;;;;;;;11.88;8.38;;;5.50;72.50;;;;;;5012530;28;20231;-77
2022/01/01 07:38:48;;;;;;;11.93;8.05;;;5.70;71.80;;;;;;5012159;28;20211;-77
2022/01/01 07:41:15;;;;;;;15.70;11.18;;;6.00;71.20;;;;;;5012570;28;20702;-78
2022/01/01 07:43:43;;;;;;;14.45;9.57;;;6.20;71.00;;;;;;5012158;28;20188;-78
2022/01/01 07:46:12;;;;;;;15.65;10.32;;;6.40;70.20;;;;;;5012908;28;20196;-78
2022/01/01 07:48:39;;;;;;;15.40;9.40;;;6.40;68.20;;;;;;5011963;28;20192;-78
2022/01/01 07:51:06;;;;;;;15.13;9.00;;;6.50;68.80;;;;;;5012491;28;20195;-78
2022/01/01 07:53:34;;;;;;;12.02;7.70;;;6.60;68.40;;;;;;5012125;28;20548;-78
2022/01/01 07:56:01;;;;;;;13.98;8.55;;;6.70;67.90;;;;;;5010128;28;20188;-78
2022/01/01 07:58:30;;;;;;;20.63;12.18;;;6.80;67.50;;;;;;5012152;28;20585;-77
2022/01/01 08:00:58;;;;;;;22.35;12.93;;;6.90;67.00;;;;;;5011778;28;20608;-78
2022/01/01 08:03:27;;;;;;;13.98;8.85;;;7.00;66.30;;;;;;5011982;28;20185;-78
2022/01/01 08:05:55;;;;;;;11.60;7.65;;;7.10;65.70;;;;;;5012630;28;20196;-77
2022/01/01 08:08:23;;;;;;;11.95;7.25;;;7.20;65.40;;;;;;5012220;28;20196;-78
2022/01/01 08:10:50;;;;;;;12.15;8.43;;;7.20;65.80;;;;;;5021791;28;20192;-78
2022/01/01 08:13:23;;;;;;;23.02;12.38;;;7.10;66.20;;;;;;5028944;28;20203;-78
2022/01/01 08:15:51;;;;;;;13.88;9.57;;;7.10;66.50;;;;;;5011381;28;20279;-78
2022/01/01 08:18:19;;;;;;;9.68;7.50;;;7.00;66.10;;;;;;5010950;28;20247;-78
2022/01/01 08:20:48;;;;;;;12.07;7.03;;;7.00;66.70;;;;;;4994282;28;20279;-78
2022/01/01 08:23:16;;;;;;;9.10;6.25;;;6.90;67.20;;;;;;4991730;28;20201;-77
2022/01/01 08:25:43;;;;;;;8.95;6.18;;;6.90;67.70;;;;;;4996846;28;20236;-77
2022/01/01 08:28:11;;;;;;;10.32;7.10;;;6.80;67.50;;;;;;4991518;28;20235;-78
2022/01/01 08:30:38;;;;;;;14.25;10.35;;;6.80;67.60;;;;;;4993521;28;20274;-78
2022/01/01 08:33:05;;;;;;;29.90;16.63;;;6.90;67.00;;;;;;4991685;28;20196;-78
2022/01/01 08:35:35;;;;;;;40.00;22.70;;;6.80;66.70;;;;;;4997519;28;20197;-78
2022/01/01 08:38:05;;;;;;;17.65;11.10;;;6.80;67.20;;;;;;4995126;28;20709;-78
2022/01/01 08:40:33;;;;;;;20.23;11.60;;;6.70;67.90;;;;;;4998359;28;20195;-78
2022/01/01 08:43:04;;;;;;;11.52;8.00;;;6.80;67.90;;;;;;4994959;28;20296;-77
2022/01/01 08:45:31;;;;;;;8.70;6.03;;;7.00;68.40;;;;;;4999513;28;20185;-78
2022/01/01 08:47:58;;;;;;;8.25;6.97;;;7.20;67.90;;;;;;4997565;28;20651;-78
2022/01/01 08:50:28;;;;;;;13.25;10.07;;;7.60;67.20;;;;;;4995746;28;20591;-78
2022/01/01 08:52:57;;;;;;;11.55;8.75;;;8.10;66.90;;;;;;5003543;28;20623;-78
2022/01/01 08:55:27;;;;;;;13.63;9.65;;;8.90;65.50;;;;;;4995425;28;20235;-79
2022/01/01 08:57:59;;;;;;;10.52;7.53;;;9.50;63.10;;;;;;4999278;28;20223;-78
2022/01/01 09:00:26;;;;;;;11.32;8.68;;;10.10;59.30;;;;;;4995276;28;20200;-75
2022/01/01 09:02:54;;;;;;;10.27;7.63;;;10.60;59.60;;;;;;4995442;28;20196;-80
2022/01/01 09:05:22;;;;;;;7.30;6.13;;;11.10;58.40;;;;;;5000801;28;20188;-80
2022/01/01 09:07:50;;;;;;;10.57;7.20;;;11.60;57.90;;;;;;5006401;28;20528;-80
2022/01/01 09:10:19;;;;;;;8.02;5.15;;;12.10;57.40;;;;;;4995061;28;20663;-81
2022/01/01 09:12:48;;;;;;;8.27;5.75;;;12.50;56.50;;;;;;4998530;28;20193;-80
2022/01/01 09:15:15;;;;;;;5.45;3.90;;;13.00;55.90;;;;;;4995372;28;20623;-79
2022/01/01 09:17:42;;;;;;;7.00;4.40;;;13.30;55.40;;;;;;5005797;28;20239;-81
2022/01/01 09:20:10;;;;;;;5.65;3.25;;;13.70;55.00;;;;;;5012951;28;20455;-81
2022/01/01 09:22:37;;;;;;;5.30;3.65;;;14.10;54.00;;;;;;5013442;28;20203;-80
2022/01/01 09:25:07;;;;;;;6.23;4.30;;;14.40;54.40;;;;;;5012466;28;20193;-81
2022/01/01 09:27:34;;;;;;;5.87;3.57;;;14.80;52.00;;;;;;5013066;28;20435;-80
2022/01/01 09:30:04;;;;;;;4.80;3.23;;;15.20;52.30;;;;;;5012767;28;20442;-81
2022/01/01 09:32:34;;;;;;;5.13;3.50;;;15.60;51.30;;;;;;5012538;28;21000;-79
2022/01/01 09:35:02;;;;;;;4.63;3.50;;;16.00;51.30;;;;;;4995328;28;20451;-81
2022/01/01 09:37:32;;;;;;;4.40;3.00;;;16.50;50.80;;;;;;4996445;28;20487;-81
2022/01/01 09:40:00;;;;;;;4.40;2.83;;;16.80;49.80;;;;;;4994021;28;20543;-80
2022/01/01 09:42:28;;;;;;;3.90;2.60;;;17.20;49.00;;;;;;5009209;28;20439;-78
2022/01/01 09:44:56;;;;;;;4.10;2.40;;;17.50;48.30;;;;;;5012431;28;20454;-78
2022/01/01 09:47:26;;;;;;;4.07;2.27;;;17.80;47.20;;;;;;5012561;28;20435;-79
2022/01/01 09:49:53;;;;;;;5.17;3.20;;;18.20;46.60;;;;;;5012840;28;20471;-79
2022/01/01 09:52:21;;;;;;;6.90;2.60;;;18.50;46.30;;;;;;5012445;28;20934;-79
2022/01/01 09:54:48;;;;;;;4.50;2.73;;;18.70;43.60;;;;;;5013026;28;20443;-79
2022/01/01 09:57:16;;;;;;;3.67;2.23;;;18.90;43.70;;;;;;5011917;28;20483;-79
2022/01/01 09:59:43;;;;;;;5.97;2.23;;;19.20;43.40;;;;;;4993831;28;20518;-79
2022/01/01 10:02:11;;;;;;;5.43;2.83;;;19.50;43.30;;;;;;4996996;28;20448;-79
2022/01/01 10:04:50;;;;;;;3.50;1.70;;;19.80;41.30;;;;;;4993845;28;20472;-79
2022/01/01 10:07:18;;;;;;;3.23;2.10;;;19.70;38.00;;;;;;5009151;28;20486;-79
2022/01/01 10:09:45;;;;;;;3.97;2.30;;;19.80;37.70;;;;;;5012096;28;20874;-79
2022/01/01 10:12:16;;;;;;;3.60;2.10;;;20.00;39.60;;;;;;5012304;28;20952;-78
2022/01/01 10:14:45;;;;;;;2.90;1.90;;;20.40;39.30;;;;;;5008970;28;20522;-80
2022/01/01 10:17:17;;;;;;;3.87;2.30;;;20.70;39.80;;;;;;5013585;28;20544;-79
2022/01/01 10:19:47;;;;;;;2.97;1.67;;;21.10;39.40;;;;;;5011088;28;20934;-78
2022/01/01 10:22:18;;;;;;;3.20;1.47;;;21.40;38.10;;;;;;5015176;28;20451;-80
2022/01/01 10:27:46;;;;;;;2.93;1.90;;;22.00;37.00;;;;;;5011853;28;20431;-79
2022/01/01 10:30:24;;;;;;;3.97;2.40;;;22.30;36.80;;;;;;4996826;28;20480;-80
2022/01/01 10:33:09;;;;;;;2.97;2.20;;;22.60;35.80;;;;;;4993372;28;20802;-80
2022/01/01 10:35:45;;;;;;;4.20;1.90;;;22.80;34.20;;;;;;5008349;28;20473;-80
2022/01/01 10:38:19;;;;;;;3.00;1.80;;;22.80;32.00;;;;;;5011220;28;20989;-79
2022/01/01 10:40:47;;;;;;;5.20;2.50;;;22.80;33.30;;;;;;4994441;28;20435;-80
2022/01/01 10:43:23;;;;;;;2.97;2.07;;;22.90;31.50;;;;;;4993177;28;20440;-81
2022/01/01 10:45:51;;;;;;;3.37;2.03;;;22.80;32.30;;;;;;4999205;28;20859;-81
2022/01/01 10:48:26;;;;;;;3.27;2.20;;;23.10;33.10;;;;;;5006823;28;20497;-81
2022/01/01 10:51:00;;;;;;;3.60;2.67;;;23.40;32.20;;;;;;5012177;28;20481;-79
2022/01/01 10:53:30;;;;;;;4.00;2.10;;;23.30;30.00;;;;;;4995182;28;20534;-79
2022/01/01 10:55:59;;;;;;;3.27;2.23;;;23.20;31.80;;;;;;4992324;28;20436;-80
2022/01/01 10:58:28;;;;;;;4.07;2.50;;;23.40;30.40;;;;;;5007553;28;20989;-79
2022/01/01 11:01:00;;;;;;;3.23;2.20;;;23.40;30.30;;;;;;5010815;28;20940;-80
2022/01/01 11:03:28;;;;;;;3.83;2.30;;;23.10;30.60;;;;;;5011709;28;20454;-80
2022/01/01 11:06:06;;;;;;;3.17;1.90;;;22.90;31.30;;;;;;5008592;28;20454;-78
2022/01/01 11:08:34;;;;;;;4.00;2.40;;;22.90;30.70;;;;;;5010087;28;20431;-83
2022/01/01 11:11:02;;;;;;;2.50;1.50;;;23.10;31.10;;;;;;5011465;28;20435;-80
2022/01/01 11:13:29;;;;;;;3.73;1.70;;;23.10;30.00;;;;;;5008918;28;20559;-80
2022/01/01 11:15:56;;;;;;;2.70;1.70;;;23.00;30.50;;;;;;5007463;28;20467;-80
2022/01/01 11:18:25;;;;;;;11.60;2.93;;;23.10;30.80;;;;;;4995690;28;20526;-81
2022/01/01 11:20:56;;;;;;;3.53;1.93;;;23.50;31.10;;;;;;4994646;28;20479;-79
2022/01/01 11:23:26;;;;;;;2.30;1.43;;;23.80;30.20;;;;;;4992396;28;20463;-80
2022/01/01 11:25:54;;;;;;;5.53;1.50;;;23.90;30.30;;;;;;4992467;28;20448;-81
2022/01/01 11:28:21;;;;;;;2.47;1.40;;;24.10;29.30;;;;;;4993085;28;20455;-80
2022/01/01 11:30:52;;;;;;;4.10;2.37;;;24.10;29.30;;;;;;5009995;28;20439;-80
2022/01/01 11:33:27;;;;;;;3.63;1.77;;;24.40;29.80;;;;;;4995510;28;20444;-80
2022/01/01 11:35:57;;;;;;;6.20;3.23;;;24.60;28.80;;;;;;4992498;28;20609;-80
2022/01/01 11:38:27;;;;;;;2.60;1.70;;;24.80;28.50;;;;;;5009976;28;20894;-81
2022/01/01 11:40:57;;;;;;;2.70;1.57;;;24.90;27.70;;;;;;5010387;28;20748;-81
2022/01/01 11:43:40;;;;;;;3.40;1.63;;;25.00;28.40;;;;;;5004354;28;20868;-81
2022/01/01 11:46:12;;;;;;;2.87;1.73;;;25.10;27.70;;;;;;4997238;28;20494;-80
2022/01/01 11:48:52;;;;;;;2.43;1.50;;;25.00;28.00;;;;;;4994147;28;20516;-80
2022/01/01 11:51:25;;;;;;;3.40;2.10;;;25.30;26.70;;;;;;5003915;28;20458;-81
2022/01/01 11:54:22;;;;;;;2.70;1.27;;;25.50;27.10;;;;;;5005721;28;20498;-81
2022/01/01 11:57:17;;;;;;;3.30;1.60;;;25.50;26.90;;;;;;4995370;28;20455;-81
2022/01/01 12:00:00;;;;;;;3.90;1.73;;;25.30;26.80;;;;;;5010194;28;20777;-81
2022/01/01 12:02:36;;;;;;;2.93;1.60;;;25.20;25.80;;;;;;5003811;28;20447;-80
2022/01/01 12:05:11;;;;;;;2.77;1.50;;;25.30;26.70;;;;;;4992443;28;20466;-81
2022/01/01 12:07:55;;;;;;;2.87;2.00;;;25.30;25.30;;;;;;4997124;28;20502;-81
2022/01/01 12:10:27;;;;;;;3.40;1.60;;;25.20;25.80;;;;;;4996143;28;20995;-76
2022/01/01 12:12:57;;;;;;;2.30;1.27;;;25.30;25.80;;;;;;5002183;28;20494;-81
2022/01/01 12:15:28;;;;;;;3.13;1.50;;;25.20;25.10;;;;;;4998837;28;20550;-81
2022/01/01 12:17:59;;;;;;;4.53;2.60;;;24.80;25.80;;;;;;4995453;28;20482;-79
2022/01/01 12:20:29;;;;;;;2.33;1.33;;;24.80;26.10;;;;;;4995917;28;20491;-80
2022/01/01 12:22:58;;;;;;;2.70;1.30;;;24.50;25.80;;;;;;4995795;28;20803;-80
2022/01/01 12:25:28;;;;;;;2.27;1.20;;;24.10;26.20;;;;;;4995586;28;20501;-80
2022/01/01 12:27:59;;;;;;;3.20;1.93;;;24.10;26.60;;;;;;4995809;28;20479;-80
2022/01/01 12:30:46;;;;;;;2.80;1.77;;;24.20;26.70;;;;;;4995608;28;20436;-80
2022/01/01 12:33:26;;;;;;;2.80;1.70;;;24.20;26.60;;;;;;4995403;28;20439;-80
2022/01/01 12:35:56;;;;;;;3.17;1.60;;;24.30;26.40;;;;;;4998022;28;20460;-80
2022/01/01 12:38:27;;;;;;;2.77;1.33;;;24.30;26.80;;;;;;4999184;28;20439;-80
2022/01/01 12:41:05;;;;;;;2.57;1.27;;;24.20;27.20;;;;;;4995406;28;20848;-79
2022/01/01 12:43:41;;;;;;;2.77;1.77;;;23.90;26.90;;;;;;4995367;28;20443;-80
2022/01/01 12:46:12;;;;;;;3.13;1.57;;;23.80;27.50;;;;;;5002858;28;20934;-79
2022/01/01 12:48:40;;;;;;;2.40;1.20;;;23.50;27.00;;;;;;5005362;28;20475;-80
2022/01/01 12:51:10;;;;;;;3.03;1.53;;;23.30;27.50;;;;;;4995161;28;20471;-79
2022/01/01 12:53:43;;;;;;;2.43;1.20;;;23.00;27.90;;;;;;4995153;28;20452;-79
2022/01/01 12:56:13;;;;;;;2.60;1.70;;;22.50;28.10;;;;;;4995084;28;20443;-81
2022/01/01 12:58:46;;;;;;;2.53;1.20;;;22.40;28.70;;;;;;4995978;28;20436;-81
2022/01/01 13:01:19;;;;;;;2.50;1.20;;;22.20;28.60;;;;;;4996224;28;20861;-82